Time;durP1;ratioP1;P1;durP2;ratioP2;P2;SDS_P1;SDS_P2;PMS_P1;PMS_P2;Temp;Humidity;BMP_temperature;BMP_pressure;BME280_temperature;BME280_humidity;BME280_pressure;Samples;Min_cycle;Max_cycle;Signal;HPM_P1;HPM_P2
2022/12/28 00:01:11;;;;;;;9.13;3.50;;;6.00;99.90;;;;;;4992388;28;20038;-73
2022/12/28 00:03:37;;;;;;;12.63;4.80;;;6.10;99.90;;;;;;5001105;28;20512;-73
2022/12/28 00:06:05;;;;;;;8.60;5.22;;;6.00;99.90;;;;;;5003113;28;20030;-73
2022/12/28 00:08:32;;;;;;;10.77;5.00;;;6.00;99.90;;;;;;5019664;28;20045;-73
2022/12/28 00:11:04;;;;;;;15.50;6.05;;;6.00;99.90;;;;;;4994976;28;20032;-73
2022/12/28 00:13:33;;;;;;;12.73;4.95;;;6.00;99.90;;;;;;5016961;28;20477;-73
2022/12/28 00:16:11;;;;;;;19.20;9.65;;;6.00;99.90;;;;;;5002639;28;20038;-73
2022/12/28 00:18:38;;;;;;;14.80;7.05;;;6.00;99.90;;;;;;5018430;28;20046;-73
2022/12/28 00:21:04;;;;;;;10.50;5.50;;;6.00;99.90;;;;;;5009242;28;20514;-73
2022/12/28 00:23:31;;;;;;;10.30;5.28;;;6.00;99.90;;;;;;4986132;28;20057;-79
2022/12/28 00:26:09;;;;;;;8.50;3.97;;;6.00;99.90;;;;;;5017811;28;20040;-74
2022/12/28 00:28:35;;;;;;;10.95;4.45;;;6.00;99.90;;;;;;4984846;28;20042;-74
2022/12/28 00:31:02;;;;;;;13.23;4.45;;;6.00;99.90;;;;;;5010489;28;20042;-74
2022/12/28 00:33:29;;;;;;;7.80;3.53;;;6.00;99.90;;;;;;4998702;28;20042;-74
2022/12/28 00:35:57;;;;;;;7.93;3.03;;;6.00;99.90;;;;;;4975313;28;20362;-74
2022/12/28 00:38:26;;;;;;;10.27;3.63;;;6.00;99.90;;;;;;5016168;28;20034;-74
2022/12/28 00:40:53;;;;;;;5.75;2.88;;;6.00;99.90;;;;;;4991396;28;20038;-74
2022/12/28 00:43:19;;;;;;;8.43;3.33;;;6.10;99.90;;;;;;5015343;28;20068;-74
2022/12/28 00:45:47;;;;;;;9.05;3.35;;;6.10;99.90;;;;;;5002943;28;20037;-75
2022/12/28 00:48:14;;;;;;;7.03;3.50;;;6.10;99.90;;;;;;5003823;28;20464;-74
2022/12/28 00:50:41;;;;;;;6.03;2.92;;;6.10;99.90;;;;;;4972933;28;20030;-74
2022/12/28 00:53:10;;;;;;;5.15;3.53;;;6.10;99.90;;;;;;5000973;28;20568;-74
2022/12/28 00:55:37;;;;;;;8.27;3.67;;;6.10;99.90;;;;;;4988082;28;20069;-74
2022/12/28 00:58:06;;;;;;;7.30;3.33;;;6.10;99.90;;;;;;5004777;28;20041;-75
2022/12/28 01:00:33;;;;;;;6.65;3.42;;;6.10;99.90;;;;;;4975289;28;20042;-74
2022/12/28 01:03:00;;;;;;;10.07;4.68;;;6.20;99.90;;;;;;4982008;28;20045;-74
2022/12/28 01:05:26;;;;;;;7.20;4.20;;;6.20;99.90;;;;;;4988178;28;20046;-75
2022/12/28 01:07:52;;;;;;;9.82;3.78;;;6.20;99.90;;;;;;4988388;28;20034;-75
2022/12/28 01:10:19;;;;;;;8.40;4.55;;;6.20;99.90;;;;;;4992315;28;20035;-74
2022/12/28 01:12:45;;;;;;;7.85;4.28;;;6.20;99.90;;;;;;4985728;28;20729;-74
2022/12/28 01:15:13;;;;;;;8.82;4.68;;;6.20;99.90;;;;;;5004457;28;20042;-74
2022/12/28 01:17:40;;;;;;;10.02;4.30;;;6.20;99.90;;;;;;4971907;28;20038;-75
2022/12/28 01:20:07;;;;;;;7.03;3.60;;;6.20;99.90;;;;;;5007326;28;20045;-73
2022/12/28 01:22:34;;;;;;;9.95;5.10;;;6.30;99.90;;;;;;5005180;28;20515;-74
2022/12/28 01:25:00;;;;;;;9.70;4.30;;;6.30;99.90;;;;;;4992010;28;20042;-74
2022/12/28 01:27:28;;;;;;;5.72;3.90;;;6.30;99.90;;;;;;4992018;28;20034;-74
2022/12/28 01:29:54;;;;;;;7.05;3.83;;;6.30;99.90;;;;;;5004173;28;20061;-73
2022/12/28 01:32:21;;;;;;;7.88;4.30;;;6.40;99.90;;;;;;4982009;28;20029;-74
2022/12/28 01:34:47;;;;;;;9.98;4.68;;;6.40;99.90;;;;;;5008018;28;20038;-74
2022/12/28 01:37:13;;;;;;;10.55;4.38;;;6.40;99.90;;;;;;5008591;28;20038;-75
2022/12/28 01:39:40;;;;;;;7.70;4.45;;;6.40;99.90;;;;;;4996195;28;20038;-74
2022/12/28 01:42:15;;;;;;;7.63;4.55;;;6.40;99.90;;;;;;4996381;28;20037;-74
2022/12/28 01:44:49;;;;;;;13.23;5.50;;;6.50;99.90;;;;;;5024294;28;20045;-75
2022/12/28 01:47:27;;;;;;;9.48;5.20;;;6.50;99.90;;;;;;5008532;28;20037;-74
2022/12/28 01:50:09;;;;;;;9.90;5.28;;;6.50;99.90;;;;;;4971893;28;20050;-73
2022/12/28 01:52:51;;;;;;;9.00;5.13;;;6.60;99.90;;;;;;5007501;28;20077;-74
2022/12/28 01:55:26;;;;;;;8.47;4.63;;;6.50;99.90;;;;;;5004651;28;20038;-74
2022/12/28 01:58:13;;;;;;;7.00;4.72;;;6.60;99.90;;;;;;5005135;28;20293;-74
2022/12/28 02:00:40;;;;;;;8.85;5.47;;;6.60;99.90;;;;;;4999378;28;20054;-74
2022/12/28 02:03:18;;;;;;;7.72;5.07;;;6.70;99.90;;;;;;4999986;28;20042;-74
2022/12/28 02:05:48;;;;;;;8.88;4.70;;;6.70;99.90;;;;;;5007690;28;20065;-74
2022/12/28 02:08:40;;;;;;;10.98;5.47;;;6.70;99.90;;;;;;4998682;28;20038;-73
2022/12/28 02:11:10;;;;;;;8.75;3.97;;;6.70;99.90;;;;;;4990124;28;20038;-74
2022/12/28 02:13:37;;;;;;;9.90;5.75;;;6.70;99.90;;;;;;4992192;28;20038;-73
2022/12/28 02:16:04;;;;;;;10.10;5.22;;;6.70;99.90;;;;;;5006694;28;20045;-74
2022/12/28 02:18:31;;;;;;;11.80;5.03;;;6.80;99.90;;;;;;5007357;28;20045;-74
2022/12/28 02:21:07;;;;;;;5.85;4.22;;;6.80;99.90;;;;;;5008675;28;20030;-74
2022/12/28 02:23:47;;;;;;;8.20;5.55;;;6.80;99.90;;;;;;4987964;28;20052;-74
2022/12/28 02:26:35;;;;;;;5.93;3.78;;;6.80;99.90;;;;;;4999469;28;20037;-74
2022/12/28 02:29:22;;;;;;;9.60;4.57;;;6.80;99.90;;;;;;4990066;28;20050;-74
2022/12/28 02:32:16;;;;;;;12.77;5.53;;;6.80;99.90;;;;;;4980244;28;20445;-74
2022/12/28 02:34:57;;;;;;;8.65;4.10;;;6.80;99.90;;;;;;4993429;28;20038;-74
2022/12/28 02:37:46;;;;;;;6.88;3.92;;;6.80;99.90;;;;;;5005833;28;20254;-74
2022/12/28 02:40:24;;;;;;;8.30;4.57;;;6.90;99.90;;;;;;4996377;28;20433;-73
2022/12/28 02:42:53;;;;;;;8.57;4.40;;;6.90;99.90;;;;;;5004217;28;20038;-74
2022/12/28 02:51:54;;;;;;;7.70;3.90;;;6.90;99.90;;;;;;4975813;28;20058;-74
2022/12/28 02:57:11;;;;;;;8.57;4.45;;;6.90;99.90;;;;;;5004325;28;20456;-74
2022/12/28 03:00:02;;;;;;;10.48;4.72;;;6.90;99.90;;;;;;4994972;28;20042;-74
2022/12/28 03:03:03;;;;;;;8.73;4.53;;;6.90;99.90;;;;;;4986506;28;20511;-74
2022/12/28 03:08:55;;;;;;;8.07;5.68;;;6.90;99.90;;;;;;5022096;28;20046;-74
2022/12/28 03:11:32;;;;;;;5.82;4.28;;;6.90;99.90;;;;;;4993813;28;20029;-74
2022/12/28 03:14:08;;;;;;;8.75;5.20;;;6.90;99.90;;;;;;5006284;28;20042;-74
2022/12/28 03:31:06;;;;;;;8.23;5.22;;;6.80;99.90;;;;;;4998141;28;20034;-74
2022/12/28 03:33:45;;;;;;;7.05;5.10;;;6.80;99.90;;;;;;5006116;28;20038;-74
2022/12/28 03:36:52;;;;;;;9.00;6.97;;;6.80;99.90;;;;;;5006749;28;20040;-75
2022/12/28 03:39:43;;;;;;;8.70;6.30;;;6.90;99.90;;;;;;5017330;28;20049;-74
2022/12/28 03:45:40;;;;;;;10.48;6.38;;;6.90;99.90;;;;;;5018208;28;20056;-75
2022/12/28 03:48:08;;;;;;;10.50;6.43;;;6.90;99.90;;;;;;5005098;28;20034;-75
2022/12/28 03:50:38;;;;;;;10.30;7.07;;;6.90;99.90;;;;;;4994998;28;20034;-75
2022/12/28 03:53:07;;;;;;;9.13;5.75;;;6.90;99.90;;;;;;4989412;28;20044;-75
2022/12/28 03:55:36;;;;;;;8.45;5.95;;;6.90;99.90;;;;;;5005029;28;20092;-74
2022/12/28 03:58:04;;;;;;;12.30;6.43;;;7.00;99.90;;;;;;4985519;28;20038;-75
2022/12/28 04:00:31;;;;;;;8.20;6.78;;;7.00;99.90;;;;;;4982987;28;20042;-74
2022/12/28 04:02:57;;;;;;;8.35;6.40;;;7.00;99.90;;;;;;5004783;28;20042;-74
2022/12/28 04:05:24;;;;;;;8.65;6.55;;;7.00;99.90;;;;;;5004922;28;20030;-74
2022/12/28 04:07:51;;;;;;;14.10;9.23;;;7.00;99.90;;;;;;4970327;28;20530;-74
2022/12/28 04:10:17;;;;;;;12.68;8.27;;;7.00;99.90;;;;;;4979987;28;20038;-73
2022/12/28 04:12:43;;;;;;;7.70;5.90;;;7.10;99.90;;;;;;4968734;28;20045;-73
2022/12/28 04:15:33;;;;;;;9.48;6.93;;;7.10;99.90;;;;;;4984043;28;20447;-74
2022/12/28 04:18:00;;;;;;;11.85;8.20;;;7.10;99.90;;;;;;5005368;28;20049;-73
2022/12/28 04:20:27;;;;;;;10.32;7.93;;;7.10;99.90;;;;;;4995824;28;20603;-73
2022/12/28 04:22:53;;;;;;;9.68;7.60;;;7.20;99.90;;;;;;5017375;28;20045;-73
2022/12/28 04:25:20;;;;;;;12.20;7.93;;;7.20;99.90;;;;;;5021662;28;20036;-73
2022/12/28 04:27:47;;;;;;;11.98;9.30;;;7.20;99.90;;;;;;4988878;28;20034;-73
2022/12/28 04:30:33;;;;;;;10.85;7.20;;;7.20;99.90;;;;;;4971111;28;20049;-73
2022/12/28 04:33:00;;;;;;;13.57;8.68;;;7.20;99.90;;;;;;5005193;28;20033;-73
2022/12/28 04:35:27;;;;;;;10.90;8.07;;;7.20;99.90;;;;;;4987671;28;20050;-73
2022/12/28 04:37:55;;;;;;;10.90;7.57;;;7.30;99.90;;;;;;5005942;28;20501;-73
2022/12/28 04:40:22;;;;;;;10.48;7.50;;;7.30;99.90;;;;;;5007566;28;20425;-73
2022/12/28 04:42:48;;;;;;;11.77;8.02;;;7.30;99.90;;;;;;4999077;28;20038;-73
2022/12/28 04:45:14;;;;;;;15.88;8.68;;;7.30;99.90;;;;;;4996109;28;20041;-74
2022/12/28 04:47:41;;;;;;;7.82;6.50;;;7.30;99.90;;;;;;5004216;28;21426;-74
2022/12/28 04:50:07;;;;;;;16.50;8.90;;;7.40;99.90;;;;;;4999199;28;20050;-73
2022/12/28 04:52:34;;;;;;;10.73;9.18;;;7.40;99.90;;;;;;4996724;28;20039;-73
2022/12/28 04:55:00;;;;;;;12.63;8.70;;;7.40;99.90;;;;;;4991235;28;20053;-74
2022/12/28 04:57:26;;;;;;;11.43;8.77;;;7.40;99.90;;;;;;5004765;28;20034;-74
2022/12/28 04:59:52;;;;;;;8.85;6.50;;;7.40;99.90;;;;;;4975866;28;20041;-73
2022/12/28 05:02:19;;;;;;;10.80;7.90;;;7.40;99.90;;;;;;4983032;28;20393;-74
2022/12/28 05:04:45;;;;;;;13.57;8.57;;;7.40;99.90;;;;;;5003259;28;20042;-74
2022/12/28 05:07:11;;;;;;;14.05;10.98;;;7.40;99.90;;;;;;5002275;28;20038;-75
2022/12/28 05:09:38;;;;;;;11.18;8.93;;;7.50;99.90;;;;;;5020345;28;20320;-74
2022/12/28 05:12:04;;;;;;;10.48;8.45;;;7.50;99.90;;;;;;4980232;28;20042;-75
2022/12/28 05:14:30;;;;;;;11.65;8.50;;;7.50;99.90;;;;;;5005128;28;20485;-75
2022/12/28 05:16:57;;;;;;;10.48;8.63;;;7.50;99.90;;;;;;5005430;28;20034;-74
2022/12/28 05:19:23;;;;;;;13.93;11.68;;;7.50;99.90;;;;;;5005359;28;20037;-74
2022/12/28 05:21:49;;;;;;;11.10;9.02;;;7.50;99.90;;;;;;4990311;28;20041;-74
2022/12/28 05:24:16;;;;;;;11.23;8.90;;;7.60;99.90;;;;;;5020175;28;20053;-74
2022/12/28 05:26:42;;;;;;;14.70;9.75;;;7.60;99.90;;;;;;5012584;28;20053;-74
2022/12/28 05:29:08;;;;;;;12.93;10.02;;;7.60;99.90;;;;;;5020554;28;20390;-74
2022/12/28 05:31:35;;;;;;;12.30;10.52;;;7.60;99.90;;;;;;4996274;28;20033;-73
2022/12/28 05:34:01;;;;;;;13.93;11.30;;;7.60;99.90;;;;;;5004027;28;20481;-73
2022/12/28 05:36:28;;;;;;;17.33;11.15;;;7.60;99.90;;;;;;4986284;28;20041;-74
2022/12/28 05:38:55;;;;;;;16.95;11.30;;;7.70;99.90;;;;;;4982844;28;20037;-74
2022/12/28 05:41:24;;;;;;;20.38;12.50;;;7.70;99.90;;;;;;4995823;28;20045;-73
2022/12/28 05:43:51;;;;;;;14.23;11.35;;;7.70;99.90;;;;;;4986849;28;20424;-73
2022/12/28 05:46:22;;;;;;;13.80;8.77;;;7.70;99.90;;;;;;4985715;28;20050;-74
2022/12/28 05:48:49;;;;;;;11.80;9.68;;;7.70;99.90;;;;;;4996086;28;20060;-73
2022/12/28 05:51:18;;;;;;;20.30;13.88;;;7.70;99.90;;;;;;4980581;28;20037;-74
2022/12/28 05:53:45;;;;;;;16.98;12.98;;;7.70;99.90;;;;;;5004083;28;20038;-73
2022/12/28 05:56:17;;;;;;;12.75;10.60;;;7.80;99.90;;;;;;5004235;28;20038;-73
2022/12/28 05:58:46;;;;;;;13.45;9.13;;;7.80;99.90;;;;;;4991845;28;20029;-73
2022/12/28 06:01:12;;;;;;;15.55;9.95;;;7.80;99.90;;;;;;4992884;28;20393;-73
2022/12/28 06:03:39;;;;;;;16.58;10.75;;;7.80;99.90;;;;;;5001553;28;20042;-73
2022/12/28 06:06:17;;;;;;;14.48;9.77;;;7.80;99.90;;;;;;5010088;28;20045;-73
2022/12/28 06:08:45;;;;;;;16.10;11.15;;;7.90;99.90;;;;;;4999889;28;20041;-73
2022/12/28 06:11:21;;;;;;;13.93;10.05;;;7.90;99.90;;;;;;5001687;28;20042;-73
2022/12/28 06:13:47;;;;;;;15.75;11.40;;;7.90;99.90;;;;;;4984747;28;20044;-73
2022/12/28 06:16:22;;;;;;;11.75;9.25;;;7.90;99.90;;;;;;5008262;28;20033;-73
2022/12/28 06:18:50;;;;;;;16.73;9.88;;;7.90;99.90;;;;;;5020484;28;20038;-73
2022/12/28 06:21:29;;;;;;;12.40;11.07;;;7.90;99.90;;;;;;5009869;28;20034;-73
2022/12/28 06:23:57;;;;;;;12.25;10.18;;;8.00;99.90;;;;;;5002795;28;20049;-73
2022/12/28 06:26:24;;;;;;;10.57;7.72;;;8.00;99.90;;;;;;5003095;28;20038;-73
2022/12/28 06:28:50;;;;;;;9.15;7.68;;;8.00;99.90;;;;;;5002794;28;20030;-73
2022/12/28 06:31:22;;;;;;;12.80;9.88;;;8.00;99.90;;;;;;4980331;28;20497;-73
2022/12/28 06:33:52;;;;;;;12.10;8.57;;;8.00;99.90;;;;;;5002304;28;20489;-73
2022/12/28 06:36:24;;;;;;;9.75;7.70;;;8.00;99.90;;;;;;5007616;28;20026;-73
2022/12/28 06:38:52;;;;;;;7.68;6.95;;;8.00;99.90;;;;;;4988941;28;20062;-73
2022/12/28 06:41:20;;;;;;;8.38;6.72;;;8.00;99.90;;;;;;5000520;28;20513;-73
2022/12/28 06:43:47;;;;;;;9.40;6.93;;;8.10;99.90;;;;;;5001959;28;20054;-73
2022/12/28 06:46:15;;;;;;;11.13;7.63;;;8.10;99.90;;;;;;4993332;28;20041;-74
2022/12/28 06:48:41;;;;;;;15.20;8.30;;;8.10;99.90;;;;;;5001434;28;20030;-74
2022/12/28 06:51:19;;;;;;;9.00;7.20;;;8.10;99.90;;;;;;4998468;28;20052;-73
2022/12/28 06:53:47;;;;;;;9.85;8.18;;;8.10;99.90;;;;;;5014584;28;20025;-74
2022/12/28 06:56:22;;;;;;;11.95;8.30;;;8.10;99.90;;;;;;4996114;28;20041;-73
2022/12/28 06:58:50;;;;;;;8.25;7.30;;;8.10;99.90;;;;;;4998312;28;20560;-73
2022/12/28 07:01:18;;;;;;;10.43;9.18;;;8.10;99.90;;;;;;4989340;28;20041;-73
2022/12/28 07:03:46;;;;;;;10.35;9.05;;;8.10;99.90;;;;;;4997834;28;20050;-73
2022/12/28 07:06:14;;;;;;;8.75;7.40;;;8.20;99.90;;;;;;5006793;28;20057;-73
2022/12/28 07:08:41;;;;;;;9.85;8.18;;;8.20;99.90;;;;;;5002011;28;20037;-73
2022/12/28 07:11:11;;;;;;;9.20;7.65;;;8.20;99.90;;;;;;4994145;28;20050;-73
2022/12/28 07:13:38;;;;;;;9.85;8.55;;;8.20;99.90;;;;;;5019534;28;20030;-73
2022/12/28 07:16:06;;;;;;;10.40;7.57;;;8.20;99.90;;;;;;5001098;28;20038;-73
2022/12/28 07:18:33;;;;;;;12.07;8.35;;;8.20;99.90;;;;;;5003103;28;20053;-73
2022/12/28 07:21:03;;;;;;;14.27;7.25;;;8.30;99.90;;;;;;5010571;28;20038;-73
2022/12/28 07:23:30;;;;;;;9.43;7.63;;;8.30;99.90;;;;;;5006231;28;20030;-74
2022/12/28 07:26:10;;;;;;;11.10;7.75;;;8.30;99.90;;;;;;5006595;28;20508;-73
2022/12/28 07:28:41;;;;;;;10.38;8.10;;;8.30;99.90;;;;;;5008151;28;20041;-73
2022/12/28 07:31:10;;;;;;;9.65;6.95;;;8.30;99.90;;;;;;4983085;28;20046;-73
2022/12/28 07:33:36;;;;;;;10.82;6.72;;;8.30;99.90;;;;;;5003741;28;20216;-73
2022/12/28 07:36:04;;;;;;;8.75;7.45;;;8.40;99.90;;;;;;5004677;28;20050;-73
2022/12/28 07:38:31;;;;;;;8.38;7.07;;;8.40;99.90;;;;;;5001948;28;20359;-74
2022/12/28 07:41:09;;;;;;;7.60;6.78;;;8.40;99.90;;;;;;4996420;28;20030;-73
2022/12/28 07:43:36;;;;;;;7.43;6.32;;;8.40;99.90;;;;;;4992623;28;20057;-73
2022/12/28 07:46:04;;;;;;;10.20;7.93;;;8.40;99.90;;;;;;4984852;28;20356;-73
2022/12/28 07:48:31;;;;;;;10.57;7.95;;;8.40;99.90;;;;;;5022443;28;20412;-73
2022/12/28 07:51:25;;;;;;;10.45;8.55;;;8.40;99.90;;;;;;4998134;28;20048;-73
2022/12/28 07:53:53;;;;;;;8.88;7.97;;;8.40;99.90;;;;;;5006464;28;20030;-73
2022/12/28 07:56:21;;;;;;;10.77;8.27;;;8.40;99.90;;;;;;4973070;28;20033;-74
2022/12/28 07:58:53;;;;;;;10.27;8.77;;;8.40;99.90;;;;;;5005151;28;20029;-73
2022/12/28 08:01:21;;;;;;;9.03;7.63;;;8.50;99.90;;;;;;4998156;28;20520;-73
2022/12/28 08:03:51;;;;;;;10.98;8.35;;;8.40;99.90;;;;;;4987968;28;20301;-73
2022/12/28 08:06:18;;;;;;;8.07;6.15;;;8.50;99.90;;;;;;4999557;28;20045;-73
2022/12/28 08:08:47;;;;;;;8.55;7.75;;;8.50;99.90;;;;;;4988879;28;20038;-73
2022/12/28 08:11:16;;;;;;;7.20;6.50;;;8.50;99.90;;;;;;4981077;28;20033;-73
2022/12/28 08:13:45;;;;;;;7.72;6.70;;;8.50;99.90;;;;;;5005972;28;20034;-73
2022/12/28 08:16:14;;;;;;;9.40;6.55;;;8.50;99.90;;;;;;5021687;28;20049;-73
2022/12/28 08:18:41;;;;;;;12.63;9.40;;;8.50;99.90;;;;;;5021939;28;20038;-73
2022/12/28 08:21:10;;;;;;;13.52;9.43;;;8.50;99.90;;;;;;4998021;28;20041;-73
2022/12/28 08:23:37;;;;;;;11.20;8.48;;;8.60;99.90;;;;;;5007037;28;20050;-73
2022/12/28 08:26:21;;;;;;;9.43;7.35;;;8.60;99.90;;;;;;5003386;28;20050;-73
2022/12/28 08:28:50;;;;;;;11.60;7.68;;;8.60;99.90;;;;;;5004640;28;20048;-73
2022/12/28 08:31:19;;;;;;;13.40;8.73;;;8.60;99.90;;;;;;4996199;28;20374;-73
2022/12/28 08:33:46;;;;;;;10.38;9.07;;;8.60;99.90;;;;;;4979020;28;20030;-73
2022/12/28 08:36:13;;;;;;;10.20;7.65;;;8.60;99.90;;;;;;4985704;28;20030;-73
2022/12/28 08:38:41;;;;;;;10.98;9.15;;;8.60;99.90;;;;;;5002050;28;20037;-73
2022/12/28 08:41:11;;;;;;;10.75;8.15;;;8.60;99.90;;;;;;4995874;28;20034;-73
2022/12/28 08:43:37;;;;;;;9.82;7.85;;;8.60;99.90;;;;;;4986871;28;20062;-73
2022/12/28 08:46:06;;;;;;;12.50;8.65;;;8.60;99.90;;;;;;5002176;28;20030;-74
2022/12/28 08:48:34;;;;;;;8.32;7.20;;;8.60;99.90;;;;;;4967135;28;20141;-73
2022/12/28 08:51:11;;;;;;;13.32;8.32;;;8.60;99.90;;;;;;4989512;28;20046;-73
2022/12/28 08:53:39;;;;;;;12.85;9.50;;;8.70;99.90;;;;;;5016334;28;20030;-74
2022/12/28 08:56:11;;;;;;;16.13;10.13;;;8.70;99.90;;;;;;5004701;28;20461;-74
2022/12/28 08:58:39;;;;;;;9.20;7.85;;;8.70;99.90;;;;;;4986710;28;20505;-74
2022/12/28 09:01:09;;;;;;;11.95;8.85;;;8.70;99.90;;;;;;4997443;28;20038;-74
2022/12/28 09:03:37;;;;;;;11.55;8.70;;;8.70;99.90;;;;;;5005874;28;20045;-73
2022/12/28 09:06:05;;;;;;;13.45;8.40;;;8.70;99.90;;;;;;5020900;28;20524;-74
2022/12/28 09:08:31;;;;;;;9.77;8.65;;;8.70;99.90;;;;;;4993271;28;20420;-74
2022/12/28 09:11:04;;;;;;;9.65;6.30;;;8.70;99.90;;;;;;5008718;28;20504;-73
2022/12/28 09:13:32;;;;;;;8.95;6.60;;;8.70;99.90;;;;;;5005963;28;20030;-73
2022/12/28 09:16:01;;;;;;;14.90;7.57;;;8.70;99.90;;;;;;5021350;28;20041;-74
2022/12/28 09:18:27;;;;;;;9.50;7.80;;;8.70;99.90;;;;;;5003879;28;20425;-73
2022/12/28 09:20:54;;;;;;;8.07;6.40;;;8.80;99.90;;;;;;5008941;28;20046;-73
2022/12/28 09:23:21;;;;;;;8.20;6.68;;;8.80;99.90;;;;;;5003131;28;20041;-74
2022/12/28 09:25:48;;;;;;;9.48;6.85;;;8.80;99.90;;;;;;5014304;28;20576;-73
2022/12/28 09:28:14;;;;;;;7.53;4.97;;;8.80;99.90;;;;;;5017864;28;20029;-73
2022/12/28 09:30:42;;;;;;;7.38;5.00;;;8.80;99.90;;;;;;5001873;28;20038;-73
2022/12/28 09:35:58;;;;;;;10.27;8.65;;;8.80;99.90;;;;;;5003202;28;20397;-73
2022/12/28 09:38:25;;;;;;;10.30;8.95;;;8.80;99.90;;;;;;5005127;28;20046;-74
2022/12/28 09:40:51;;;;;;;11.35;8.23;;;8.80;99.90;;;;;;4996737;28;20641;-73
2022/12/28 09:43:18;;;;;;;8.38;7.05;;;8.80;99.90;;;;;;5007574;28;20054;-73
2022/12/28 09:45:45;;;;;;;8.63;7.70;;;8.80;99.90;;;;;;4992237;28;20062;-74
2022/12/28 09:48:15;;;;;;;13.13;8.80;;;8.80;99.90;;;;;;5002274;28;20038;-75
2022/12/28 09:50:42;;;;;;;11.80;7.40;;;8.90;99.90;;;;;;4998535;28;20037;-74
2022/12/28 09:53:41;;;;;;;10.00;7.05;;;8.80;99.90;;;;;;4997740;28;20034;-74
2022/12/28 09:56:33;;;;;;;13.30;9.27;;;8.80;99.90;;;;;;4975319;28;20045;-74
2022/12/28 09:59:00;;;;;;;11.98;8.48;;;8.80;99.90;;;;;;5008262;28;20040;-75
2022/12/28 10:01:27;;;;;;;11.63;7.78;;;8.80;99.90;;;;;;5015631;28;20505;-74
2022/12/28 10:03:56;;;;;;;11.98;7.72;;;8.80;99.90;;;;;;5003164;28;20041;-74
2022/12/28 10:06:31;;;;;;;15.07;9.65;;;8.80;99.90;;;;;;4975589;28;20030;-74
2022/12/28 10:09:00;;;;;;;15.48;8.95;;;8.80;99.90;;;;;;4988191;28;20045;-74
2022/12/28 10:11:31;;;;;;;12.30;8.65;;;8.90;99.90;;;;;;4996408;28;20041;-73
2022/12/28 10:14:00;;;;;;;7.93;5.93;;;8.90;99.90;;;;;;5005820;28;20038;-74
2022/12/28 10:16:31;;;;;;;13.43;7.32;;;8.90;99.90;;;;;;5023865;28;20038;-74
2022/12/28 10:18:58;;;;;;;10.75;7.32;;;8.90;99.90;;;;;;5002059;28;20038;-74
2022/12/28 10:21:29;;;;;;;8.02;7.20;;;8.90;99.90;;;;;;4998552;28;20045;-74
2022/12/28 10:23:56;;;;;;;7.78;6.15;;;8.90;99.90;;;;;;5022646;28;20405;-74
2022/12/28 10:26:22;;;;;;;7.20;6.22;;;8.90;99.90;;;;;;5023317;28;20030;-74
2022/12/28 10:28:59;;;;;;;7.18;6.20;;;8.90;99.90;;;;;;5013289;28;20034;-73
2022/12/28 10:31:38;;;;;;;8.48;5.72;;;8.90;99.90;;;;;;5008400;28;20030;-74
2022/12/28 10:34:16;;;;;;;8.18;5.72;;;9.00;99.90;;;;;;5008496;28;20037;-74
2022/12/28 10:36:43;;;;;;;7.68;5.60;;;8.90;99.90;;;;;;5006189;28;20436;-74
2022/12/28 10:39:18;;;;;;;8.93;6.32;;;9.00;99.90;;;;;;5002124;28;20023;-74
2022/12/28 10:41:45;;;;;;;7.57;6.68;;;8.90;99.90;;;;;;5011713;28;20053;-74
2022/12/28 10:44:30;;;;;;;7.80;6.25;;;8.90;99.90;;;;;;5006174;28;20049;-74
2022/12/28 10:47:14;;;;;;;12.35;7.30;;;9.00;99.90;;;;;;4989708;28;20040;-74
2022/12/28 10:49:49;;;;;;;8.68;7.45;;;9.00;99.90;;;;;;5002525;28;20396;-74
2022/12/28 10:52:15;;;;;;;7.03;5.25;;;9.00;99.90;;;;;;4998621;28;20371;-74
2022/12/28 10:54:42;;;;;;;9.35;6.13;;;9.00;99.90;;;;;;5009546;28;20030;-74
2022/12/28 10:57:28;;;;;;;10.35;6.93;;;9.00;99.90;;;;;;5005740;28;20412;-73
2022/12/28 11:00:23;;;;;;;9.25;5.75;;;9.10;99.90;;;;;;4981677;28;20045;-73
2022/12/28 11:02:49;;;;;;;7.15;5.80;;;9.10;99.90;;;;;;5012265;28;20034;-74
2022/12/28 11:05:23;;;;;;;8.38;5.50;;;9.10;99.90;;;;;;5006311;28;20551;-74
2022/12/28 11:08:04;;;;;;;8.70;6.40;;;9.10;99.90;;;;;;4973729;28;20036;-74
2022/12/28 11:10:31;;;;;;;10.15;5.75;;;9.10;99.90;;;;;;4987438;28;20042;-74
2022/12/28 11:13:00;;;;;;;5.18;4.68;;;9.10;99.90;;;;;;4987331;28;20339;-73
2022/12/28 11:15:31;;;;;;;5.95;4.95;;;9.10;99.90;;;;;;5022944;28;20145;-74
2022/12/28 11:17:59;;;;;;;7.87;5.70;;;9.10;99.90;;;;;;5003226;28;20104;-74
2022/12/28 11:20:32;;;;;;;6.53;3.67;;;9.10;99.90;;;;;;4996686;28;20485;-74
2022/12/28 11:22:58;;;;;;;;;;;9.10;99.90;;;;;;5003016;28;20034;-73
2022/12/28 11:25:33;;;;;;;6.45;3.95;;;9.20;99.90;;;;;;5004760;28;19926;-74
2022/12/28 11:28:26;;;;;;;4.10;3.28;;;9.20;99.90;;;;;;4989272;28;20041;-73
2022/12/28 11:30:53;;;;;;;2.92;2.45;;;9.20;99.90;;;;;;4995307;28;20042;-74
2022/12/28 11:33:34;;;;;;;3.15;2.85;;;9.20;99.90;;;;;;5005684;28;20606;-74
2022/12/28 11:36:01;;;;;;;4.53;3.15;;;9.20;99.90;;;;;;5004240;28;20034;-74
2022/12/28 11:38:39;;;;;;;5.45;3.58;;;9.20;99.90;;;;;;5009925;28;20515;-74
2022/12/28 11:41:10;;;;;;;5.57;3.67;;;9.20;99.90;;;;;;4998346;28;20498;-73
2022/12/28 11:43:39;;;;;;;4.82;3.92;;;9.20;99.90;;;;;;4985891;28;20038;-72
2022/12/28 11:46:25;;;;;;;5.95;4.55;;;9.20;99.90;;;;;;5004457;28;20515;-72
2022/12/28 11:49:01;;;;;;;7.97;4.63;;;9.20;99.90;;;;;;4989238;28;20685;-72
2022/12/28 11:51:28;;;;;;;6.55;4.18;;;9.20;99.90;;;;;;5009188;28;20049;-73
2022/12/28 11:53:58;;;;;;;5.15;3.33;;;9.30;99.90;;;;;;5001046;28;20038;-73
2022/12/28 11:56:42;;;;;;;3.38;2.72;;;9.30;99.90;;;;;;5004271;28;20057;-73
2022/12/28 11:59:31;;;;;;;5.22;3.20;;;9.30;99.90;;;;;;5004791;28;20022;-74
2022/12/28 12:02:01;;;;;;;5.50;3.30;;;9.30;99.90;;;;;;5006305;28;20034;-73
2022/12/28 12:04:34;;;;;;;4.53;3.08;;;9.30;99.90;;;;;;5004547;28;20057;-73
2022/12/28 12:07:00;;;;;;;7.15;3.97;;;9.30;99.90;;;;;;5003038;28;20045;-74
2022/12/28 12:09:31;;;;;;;3.92;3.22;;;9.30;99.90;;;;;;5016688;28;20038;-73
2022/12/28 12:12:02;;;;;;;5.85;3.33;;;9.30;99.90;;;;;;5010241;28;20041;-73
2022/12/28 12:14:31;;;;;;;6.05;3.03;;;9.30;99.90;;;;;;5004657;28;20038;-73
2022/12/28 12:17:23;;;;;;;5.63;2.80;;;9.30;99.90;;;;;;5005544;28;20038;-73
2022/12/28 12:19:55;;;;;;;4.40;3.00;;;9.30;99.90;;;;;;5001772;28;20041;-73
2022/12/28 12:22:25;;;;;;;3.42;2.55;;;9.20;99.90;;;;;;5005663;28;20049;-76
2022/12/28 12:24:56;;;;;;;5.18;3.40;;;9.20;99.90;;;;;;4992832;28;20436;-74
2022/12/28 12:27:38;;;;;;;6.03;3.83;;;9.20;99.90;;;;;;4988491;28;20041;-76
2022/12/28 12:30:15;;;;;;;3.58;2.90;;;9.20;99.90;;;;;;5013037;28;20048;-75
2022/12/28 12:33:04;;;;;;;5.07;2.30;;;9.20;99.90;;;;;;5008120;28;20038;-74
2022/12/28 12:35:44;;;;;;;4.30;3.10;;;9.20;99.90;;;;;;5005036;28;20038;-74
2022/12/28 12:38:29;;;;;;;4.68;2.72;;;9.20;99.90;;;;;;5003375;28;20030;-75
2022/12/28 12:41:25;;;;;;;4.55;3.10;;;9.20;99.90;;;;;;4978343;28;20528;-76
2022/12/28 12:44:33;;;;;;;4.80;2.70;;;9.20;99.90;;;;;;4969308;28;20540;-75
2022/12/28 12:47:39;;;;;;;6.93;2.83;;;9.20;99.90;;;;;;5005278;28;20038;-75
2022/12/28 12:50:39;;;;;;;5.43;3.15;;;9.20;99.90;;;;;;4990693;28;20528;-75
2022/12/28 12:53:19;;;;;;;6.07;3.35;;;9.20;99.90;;;;;;5001018;28;20050;-76
2022/12/28 12:55:55;;;;;;;6.47;3.85;;;9.20;99.90;;;;;;5003157;28;20030;-73
2022/12/28 12:58:24;;;;;;;4.07;3.08;;;9.20;99.90;;;;;;4999308;28;20488;-74
2022/12/28 13:01:02;;;;;;;5.10;3.22;;;9.20;99.90;;;;;;4995963;28;20386;-74
2022/12/28 13:03:47;;;;;;;7.18;4.18;;;9.20;99.90;;;;;;5015700;28;20037;-74
2022/12/28 13:06:21;;;;;;;9.50;4.05;;;9.20;99.90;;;;;;4993822;28;20062;-74
2022/12/28 13:09:00;;;;;;;7.57;4.18;;;9.20;99.90;;;;;;5003753;28;20038;-75
2022/12/28 13:11:28;;;;;;;7.93;3.78;;;9.20;99.90;;;;;;4997185;28;20034;-73
2022/12/28 13:13:55;;;;;;;9.35;6.15;;;9.20;99.90;;;;;;5010605;28;20385;-72
2022/12/28 13:16:28;;;;;;;11.75;8.13;;;9.20;99.90;;;;;;5016687;28;20266;-73
2022/12/28 13:19:05;;;;;;;15.30;8.10;;;9.20;99.90;;;;;;5004266;28;20038;-72
2022/12/28 13:21:44;;;;;;;12.93;6.35;;;9.20;99.90;;;;;;4992934;28;20026;-73
2022/12/28 13:24:26;;;;;;;18.05;8.10;;;9.20;99.90;;;;;;5015958;28;20046;-72
2022/12/28 13:26:54;;;;;;;13.82;7.63;;;9.20;99.90;;;;;;5003540;28;20030;-73
2022/12/28 13:29:23;;;;;;;11.55;6.63;;;9.20;99.90;;;;;;5004449;28;20038;-72
2022/12/28 13:31:50;;;;;;;11.18;5.07;;;9.20;99.90;;;;;;4990728;28;20030;-73
2022/12/28 13:34:17;;;;;;;8.73;4.43;;;9.20;99.90;;;;;;5003700;28;20045;-73
2022/12/28 13:36:55;;;;;;;7.43;4.18;;;9.20;99.90;;;;;;5018827;28;20513;-75
2022/12/28 13:39:23;;;;;;;13.73;4.80;;;9.20;99.90;;;;;;5003946;28;20040;-74
2022/12/28 13:41:55;;;;;;;7.60;4.55;;;9.20;99.90;;;;;;4990769;28;20037;-75
2022/12/28 13:44:36;;;;;;;6.25;3.75;;;9.20;99.90;;;;;;5011711;28;20528;-74
2022/12/28 13:47:05;;;;;;;11.40;3.70;;;9.20;99.90;;;;;;5019362;28;20501;-74
2022/12/28 13:49:43;;;;;;;10.60;3.90;;;9.20;99.90;;;;;;5011203;28;20041;-74